sensor_id;sensor_type;location;lat;lon;timestamp;pressure;altitude;pressure_sealevel;temperature;humidity
68525;BME280;55524;51.380;13.372;2023-05-14T00:01:00;100940.56;;;12.83;86.10
68525;BME280;55524;51.380;13.372;2023-05-14T00:03:26;100940.56;;;12.83;86.49
68525;BME280;55524;51.380;13.372;2023-05-14T00:05:52;100938.75;;;12.84;85.60
68525;BME280;55524;51.380;13.372;2023-05-14T00:08:19;100931.78;;;12.81;86.03
68525;BME280;55524;51.380;13.372;2023-05-14T00:10:45;100930.91;;;12.80;85.74
68525;BME280;55524;51.380;13.372;2023-05-14T00:13:11;100927.44;;;12.78;85.82
68525;BME280;55524;51.380;13.372;2023-05-14T00:15:37;100919.56;;;12.77;85.28
68525;BME280;55524;51.380;13.372;2023-05-14T00:18:04;100924.00;;;12.76;86.00
68525;BME280;55524;51.380;13.372;2023-05-14T00:20:31;100923.31;;;12.71;86.46
68525;BME280;55524;51.380;13.372;2023-05-14T00:22:57;100918.13;;;12.68;85.86
68525;BME280;55524;51.380;13.372;2023-05-14T00:25:23;100922.69;;;12.65;86.37
68525;BME280;55524;51.380;13.372;2023-05-14T00:27:49;100915.66;;;12.64;85.73
68525;BME280;55524;51.380;13.372;2023-05-14T00:30:16;100917.44;;;12.63;86.35
68525;BME280;55524;51.380;13.372;2023-05-14T00:32:42;100919.16;;;12.64;86.55
68525;BME280;55524;51.380;13.372;2023-05-14T00:35:08;100918.53;;;12.58;86.47
68525;BME280;55524;51.380;13.372;2023-05-14T00:37:35;100916.06;;;12.53;87.48
68525;BME280;55524;51.380;13.372;2023-05-14T00:40:02;100912.56;;;12.51;87.30
68525;BME280;55524;51.380;13.372;2023-05-14T00:42:28;100915.22;;;12.51;86.97
68525;BME280;55524;51.380;13.372;2023-05-14T00:44:55;100907.25;;;12.52;86.91
68525;BME280;55524;51.380;13.372;2023-05-14T00:47:21;100904.69;;;12.49;86.93
68525;BME280;55524;51.380;13.372;2023-05-14T00:49:48;100911.84;;;12.47;86.63
68525;BME280;55524;51.380;13.372;2023-05-14T00:52:15;100900.44;;;12.45;86.45
68525;BME280;55524;51.380;13.372;2023-05-14T00:54:41;100900.53;;;12.42;87.05
68525;BME280;55524;51.380;13.372;2023-05-14T00:57:08;100896.28;;;12.38;87.09
68525;BME280;55524;51.380;13.372;2023-05-14T00:59:34;100898.25;;;12.33;87.88
68525;BME280;55524;51.380;13.372;2023-05-14T01:02:01;100894.94;;;12.26;87.59
68525;BME280;55524;51.380;13.372;2023-05-14T01:04:28;100897.59;;;12.26;87.77
68525;BME280;55524;51.380;13.372;2023-05-14T01:15:00;100891.13;;;12.10;88.24
68525;BME280;55524;51.380;13.372;2023-05-14T01:17:28;100897.41;;;12.07;88.66
68525;BME280;55524;51.380;13.372;2023-05-14T01:19:57;100893.13;;;12.03;89.21
68525;BME280;55524;51.380;13.372;2023-05-14T01:22:25;100885.31;;;12.00;89.66
68525;BME280;55524;51.380;13.372;2023-05-14T01:24:51;100887.97;;;12.00;90.00
68525;BME280;55524;51.380;13.372;2023-05-14T01:27:24;100883.91;;;11.90;90.00
68525;BME280;55524;51.380;13.372;2023-05-14T01:32:39;100884.16;;;11.84;91.17
68525;BME280;55524;51.380;13.372;2023-05-14T01:35:06;100885.00;;;11.85;91.16
68525;BME280;55524;51.380;13.372;2023-05-14T01:37:34;100886.78;;;11.84;91.05
68525;BME280;55524;51.380;13.372;2023-05-14T01:40:02;100894.59;;;11.87;92.04
68525;BME280;55524;51.380;13.372;2023-05-14T01:42:29;100887.47;;;11.89;91.87
68525;BME280;55524;51.380;13.372;2023-05-14T01:44:55;100877.84;;;11.87;91.73
68525;BME280;55524;51.380;13.372;2023-05-14T01:47:22;100885.03;;;11.83;92.11
68525;BME280;55524;51.380;13.372;2023-05-14T01:49:48;100885.06;;;11.81;93.02
68525;BME280;55524;51.380;13.372;2023-05-14T01:52:15;100884.22;;;11.81;92.71
68525;BME280;55524;51.380;13.372;2023-05-14T01:54:41;100882.38;;;11.83;92.81
68525;BME280;55524;51.380;13.372;2023-05-14T01:57:07;100881.50;;;11.84;93.13
68525;BME280;55524;51.380;13.372;2023-05-14T01:59:34;100869.91;;;11.87;93.11
68525;BME280;55524;51.380;13.372;2023-05-14T02:02:00;100869.13;;;11.85;93.65
68525;BME280;55524;51.380;13.372;2023-05-14T02:04:26;100871.81;;;11.83;93.89
68525;BME280;55524;51.380;13.372;2023-05-14T02:06:53;100868.25;;;11.84;94.78
68525;BME280;55524;51.380;13.372;2023-05-14T02:09:19;100867.47;;;11.80;95.22
68525;BME280;55524;51.380;13.372;2023-05-14T02:11:46;100870.97;;;11.81;95.24
68525;BME280;55524;51.380;13.372;2023-05-14T02:14:12;100867.41;;;11.82;94.77
68525;BME280;55524;51.380;13.372;2023-05-14T02:16:40;100866.53;;;11.81;95.68
68525;BME280;55524;51.380;13.372;2023-05-14T02:19:06;100861.31;;;11.80;96.26
68525;BME280;55524;51.380;13.372;2023-05-14T02:21:33;100862.03;;;11.85;96.53
68525;BME280;55524;51.380;13.372;2023-05-14T02:23:59;100856.00;;;11.80;96.13
68525;BME280;55524;51.380;13.372;2023-05-14T02:26:26;100856.13;;;11.77;96.60
68525;BME280;55524;51.380;13.372;2023-05-14T02:28:52;100857.06;;;11.74;96.84
68525;BME280;55524;51.380;13.372;2023-05-14T02:31:18;100861.69;;;11.69;98.11
68525;BME280;55524;51.380;13.372;2023-05-14T02:33:44;100856.41;;;11.68;97.83
68525;BME280;55524;51.380;13.372;2023-05-14T02:36:11;100851.34;;;11.62;98.65
68525;BME280;55524;51.380;13.372;2023-05-14T02:38:37;100852.38;;;11.57;98.85
68525;BME280;55524;51.380;13.372;2023-05-14T02:41:04;100858.03;;;11.47;99.60
68525;BME280;55524;51.380;13.372;2023-05-14T02:43:30;100854.69;;;11.42;100.00
68525;BME280;55524;51.380;13.372;2023-05-14T02:45:56;100859.41;;;11.32;100.00
68525;BME280;55524;51.380;13.372;2023-05-14T02:48:22;100858.63;;;11.30;100.00
68525;BME280;55524;51.380;13.372;2023-05-14T02:50:50;100860.56;;;11.25;100.00
68525;BME280;55524;51.380;13.372;2023-05-14T02:53:17;100857.50;;;11.11;100.00
68525;BME280;55524;51.380;13.372;2023-05-14T02:55:43;100855.81;;;11.08;100.00
68525;BME280;55524;51.380;13.372;2023-05-14T02:58:09;100850.50;;;11.08;100.00
68525;BME280;55524;51.380;13.372;2023-05-14T03:00:36;100855.16;;;11.01;100.00
68525;BME280;55524;51.380;13.372;2023-05-14T03:03:02;100851.00;;;10.93;100.00
68525;BME280;55524;51.380;13.372;2023-05-14T03:05:28;100855.50;;;10.91;100.00
68525;BME280;55524;51.380;13.372;2023-05-14T03:07:54;100849.28;;;10.92;100.00
68525;BME280;55524;51.380;13.372;2023-05-14T03:10:21;100848.38;;;10.93;100.00
68525;BME280;55524;51.380;13.372;2023-05-14T03:12:47;100854.63;;;10.90;100.00
68525;BME280;55524;51.380;13.372;2023-05-14T03:15:14;100852.31;;;10.79;100.00
68525;BME280;55524;51.380;13.372;2023-05-14T03:17:40;100863.81;;;10.78;100.00
68525;BME280;55524;51.380;13.372;2023-05-14T03:20:07;100853.28;;;10.77;100.00
68525;BME280;55524;51.380;13.372;2023-05-14T03:22:33;100860.50;;;10.72;100.00
68525;BME280;55524;51.380;13.372;2023-05-14T03:24:59;100853.44;;;10.72;100.00
68525;BME280;55524;51.380;13.372;2023-05-14T03:27:26;100862.13;;;10.76;100.00
68525;BME280;55524;51.380;13.372;2023-05-14T03:29:52;100867.50;;;10.73;100.00
68525;BME280;55524;51.380;13.372;2023-05-14T03:32:18;100868.66;;;10.64;100.00
68525;BME280;55524;51.380;13.372;2023-05-14T03:34:45;100860.41;;;10.47;100.00
68525;BME280;55524;51.380;13.372;2023-05-14T03:37:11;100859.47;;;10.48;100.00
68525;BME280;55524;51.380;13.372;2023-05-14T03:39:37;100853.78;;;10.32;100.00
68525;BME280;55524;51.380;13.372;2023-05-14T03:42:04;100853.13;;;10.24;100.00
68525;BME280;55524;51.380;13.372;2023-05-14T03:44:30;100854.34;;;10.12;100.00
68525;BME280;55524;51.380;13.372;2023-05-14T03:46:56;100850.25;;;10.00;100.00
68525;BME280;55524;51.380;13.372;2023-05-14T03:49:23;100856.53;;;9.98;100.00
68525;BME280;55524;51.380;13.372;2023-05-14T03:51:49;100852.81;;;10.03;100.00
68525;BME280;55524;51.380;13.372;2023-05-14T03:54:15;100844.84;;;10.05;100.00
68525;BME280;55524;51.380;13.372;2023-05-14T03:56:41;100851.91;;;10.04;100.00
68525;BME280;55524;51.380;13.372;2023-05-14T03:59:08;100847.41;;;10.08;100.00
68525;BME280;55524;51.380;13.372;2023-05-14T04:01:34;100844.81;;;10.06;100.00
68525;BME280;55524;51.380;13.372;2023-05-14T04:04:00;100842.00;;;10.13;100.00
68525;BME280;55524;51.380;13.372;2023-05-14T04:06:26;100848.91;;;10.17;100.00
68525;BME280;55524;51.380;13.372;2023-05-14T04:08:53;100835.56;;;10.21;100.00
68525;BME280;55524;51.380;13.372;2023-05-14T04:11:19;100840.00;;;10.21;100.00
68525;BME280;55524;51.380;13.372;2023-05-14T04:13:46;100840.19;;;10.15;100.00
68525;BME280;55524;51.380;13.372;2023-05-14T04:16:12;100839.41;;;10.11;100.00
68525;BME280;55524;51.380;13.372;2023-05-14T04:18:39;100837.78;;;10.05;100.00
68525;BME280;55524;51.380;13.372;2023-05-14T04:21:05;100838.72;;;10.04;100.00
68525;BME280;55524;51.380;13.372;2023-05-14T04:23:31;100837.16;;;9.97;100.00
68525;BME280;55524;51.380;13.372;2023-05-14T04:25:58;100833.50;;;10.01;100.00
68525;BME280;55524;51.380;13.372;2023-05-14T04:28:24;100835.34;;;9.99;100.00
68525;BME280;55524;51.380;13.372;2023-05-14T04:30:51;100834.44;;;10.00;100.00
68525;BME280;55524;51.380;13.372;2023-05-14T04:33:17;100836.94;;;10.05;100.00
68525;BME280;55524;51.380;13.372;2023-05-14T04:35:44;100845.72;;;10.05;100.00
68525;BME280;55524;51.380;13.372;2023-05-14T04:38:11;100839.56;;;10.05;100.00
68525;BME280;55524;51.380;13.372;2023-05-14T04:40:39;100843.03;;;10.07;100.00
68525;BME280;55524;51.380;13.372;2023-05-14T04:43:06;100845.56;;;10.12;100.00
68525;BME280;55524;51.380;13.372;2023-05-14T04:45:33;100841.00;;;10.17;100.00
68525;BME280;55524;51.380;13.372;2023-05-14T04:47:59;100834.59;;;10.25;100.00
68525;BME280;55524;51.380;13.372;2023-05-14T04:50:25;100832.47;;;10.38;100.00
68525;BME280;55524;51.380;13.372;2023-05-14T04:52:52;100835.16;;;10.37;100.00
68525;BME280;55524;51.380;13.372;2023-05-14T04:55:21;100834.03;;;10.45;100.00
68525;BME280;55524;51.380;13.372;2023-05-14T04:57:47;100831.28;;;10.48;100.00
68525;BME280;55524;51.380;13.372;2023-05-14T05:00:14;100822.16;;;10.58;100.00
68525;BME280;55524;51.380;13.372;2023-05-14T05:02:41;100830.81;;;10.64;100.00
68525;BME280;55524;51.380;13.372;2023-05-14T05:05:07;100822.47;;;10.76;100.00
68525;BME280;55524;51.380;13.372;2023-05-14T05:07:34;100824.00;;;10.83;100.00
68525;BME280;55524;51.380;13.372;2023-05-14T05:10:01;100822.75;;;10.95;100.00
68525;BME280;55524;51.380;13.372;2023-05-14T05:12:27;100824.06;;;11.08;100.00
68525;BME280;55524;51.380;13.372;2023-05-14T05:14:56;100819.34;;;11.18;100.00
68525;BME280;55524;51.380;13.372;2023-05-14T05:17:23;100825.28;;;11.24;100.00
68525;BME280;55524;51.380;13.372;2023-05-14T05:19:50;100826.72;;;11.35;100.00
68525;BME280;55524;51.380;13.372;2023-05-14T05:22:16;100826.53;;;11.39;100.00
68525;BME280;55524;51.380;13.372;2023-05-14T05:24:43;100824.47;;;11.49;100.00
68525;BME280;55524;51.380;13.372;2023-05-14T05:27:09;100827.72;;;11.55;100.00
68525;BME280;55524;51.380;13.372;2023-05-14T05:29:36;100820.19;;;11.70;100.00
68525;BME280;55524;51.380;13.372;2023-05-14T05:32:02;100821.91;;;11.71;100.00
68525;BME280;55524;51.380;13.372;2023-05-14T05:34:29;100819.16;;;11.74;100.00
68525;BME280;55524;51.380;13.372;2023-05-14T05:36:56;100817.88;;;11.86;100.00
68525;BME280;55524;51.380;13.372;2023-05-14T05:39:22;100813.00;;;11.73;99.78
68525;BME280;55524;51.380;13.372;2023-05-14T05:41:49;100815.91;;;11.91;99.74
68525;BME280;55524;51.380;13.372;2023-05-14T05:44:15;100808.50;;;12.00;99.02
68525;BME280;55524;51.380;13.372;2023-05-14T05:46:41;100810.72;;;12.11;98.29
68525;BME280;55524;51.380;13.372;2023-05-14T05:49:08;100811.25;;;12.21;97.12
68525;BME280;55524;51.380;13.372;2023-05-14T05:51:34;100809.06;;;12.32;96.48
68525;BME280;55524;51.380;13.372;2023-05-14T05:54:00;100808.59;;;12.44;95.49
68525;BME280;55524;51.380;13.372;2023-05-14T05:56:27;100804.16;;;12.45;94.43
68525;BME280;55524;51.380;13.372;2023-05-14T05:58:53;100812.56;;;12.33;93.93
68525;BME280;55524;51.380;13.372;2023-05-14T06:01:19;100804.09;;;12.68;93.18
68525;BME280;55524;51.380;13.372;2023-05-14T06:03:46;100806.06;;;12.85;92.96
68525;BME280;55524;51.380;13.372;2023-05-14T06:06:13;100797.59;;;12.97;92.56
68525;BME280;55524;51.380;13.372;2023-05-14T06:08:40;100793.69;;;13.06;90.88
68525;BME280;55524;51.380;13.372;2023-05-14T06:11:07;100797.81;;;13.13;90.07
68525;BME280;55524;51.380;13.372;2023-05-14T06:13:34;100794.91;;;13.19;89.73
68525;BME280;55524;51.380;13.372;2023-05-14T06:16:00;100800.72;;;13.29;88.77
68525;BME280;55524;51.380;13.372;2023-05-14T06:18:26;100802.91;;;13.40;88.21
68525;BME280;55524;51.380;13.372;2023-05-14T06:20:52;100802.38;;;13.52;87.96
68525;BME280;55524;51.380;13.372;2023-05-14T06:23:21;100799.25;;;13.63;86.96
68525;BME280;55524;51.380;13.372;2023-05-14T06:25:49;100793.94;;;13.63;85.73
68525;BME280;55524;51.380;13.372;2023-05-14T06:28:16;100789.66;;;13.79;84.70
68525;BME280;55524;51.380;13.372;2023-05-14T06:30:42;100790.88;;;13.72;83.43
68525;BME280;55524;51.380;13.372;2023-05-14T06:33:08;100787.09;;;13.96;83.89
68525;BME280;55524;51.380;13.372;2023-05-14T06:35:35;100793.41;;;14.13;84.30
68525;BME280;55524;51.380;13.372;2023-05-14T06:38:02;100781.22;;;14.09;82.51
68525;BME280;55524;51.380;13.372;2023-05-14T06:40:28;100775.97;;;14.26;82.85
68525;BME280;55524;51.380;13.372;2023-05-14T06:42:54;100781.44;;;14.23;83.09
68525;BME280;55524;51.380;13.372;2023-05-14T06:45:21;100781.88;;;14.51;84.08
68525;BME280;55524;51.380;13.372;2023-05-14T06:47:47;100753.66;;;14.66;80.69
68525;BME280;55524;51.380;13.372;2023-05-14T06:50:14;100746.41;;;14.70;79.25
68525;BME280;55524;51.380;13.372;2023-05-14T06:52:40;100741.22;;;14.84;77.68
68525;BME280;55524;51.380;13.372;2023-05-14T06:55:08;100717.94;;;14.89;75.22
68525;BME280;55524;51.380;13.372;2023-05-14T06:57:34;100739.06;;;15.10;76.21
68525;BME280;55524;51.380;13.372;2023-05-14T07:00:01;100726.84;;;15.06;75.88
68525;BME280;55524;51.380;13.372;2023-05-14T07:02:27;100730.91;;;15.30;76.60
68525;BME280;55524;51.380;13.372;2023-05-14T07:04:53;100707.53;;;15.53;74.17
68525;BME280;55524;51.380;13.372;2023-05-14T07:07:20;100693.16;;;15.55;72.78
68525;BME280;55524;51.380;13.372;2023-05-14T07:09:47;100690.19;;;15.61;72.72
68525;BME280;55524;51.380;13.372;2023-05-14T07:12:13;100679.91;;;15.87;71.27
68525;BME280;55524;51.380;13.372;2023-05-14T07:14:40;100664.72;;;15.89;69.65
68525;BME280;55524;51.380;13.372;2023-05-14T07:17:06;100681.13;;;16.29;71.21
68525;BME280;55524;51.380;13.372;2023-05-14T07:19:32;100682.91;;;16.44;71.10
68525;BME280;55524;51.380;13.372;2023-05-14T07:21:58;100645.91;;;16.68;67.83
68525;BME280;55524;51.380;13.372;2023-05-14T07:24:26;100628.34;;;16.80;66.32
68525;BME280;55524;51.380;13.372;2023-05-14T07:26:52;100639.31;;;16.75;67.80
68525;BME280;55524;51.380;13.372;2023-05-14T07:29:19;100631.81;;;17.25;66.84
68525;BME280;55524;51.380;13.372;2023-05-14T07:31:45;100637.44;;;17.63;67.73
68525;BME280;55524;51.380;13.372;2023-05-14T07:34:12;100587.69;;;17.75;63.22
68525;BME280;55524;51.380;13.372;2023-05-14T07:36:38;100575.94;;;17.77;61.78
68525;BME280;55524;51.380;13.372;2023-05-14T07:39:05;100592.53;;;18.09;62.70
68525;BME280;55524;51.380;13.372;2023-05-14T07:41:31;100561.72;;;18.16;59.34
68525;BME280;55524;51.380;13.372;2023-05-14T07:43:57;100562.34;;;18.60;58.52
68525;BME280;55524;51.380;13.372;2023-05-14T07:46:23;100565.06;;;18.73;58.69
68525;BME280;55524;51.380;13.372;2023-05-14T07:48:50;100561.22;;;18.77;57.70
68525;BME280;55524;51.380;13.372;2023-05-14T07:51:17;100568.34;;;18.63;58.73
68525;BME280;55524;51.380;13.372;2023-05-14T07:53:43;100564.28;;;18.58;58.20
68525;BME280;55524;51.380;13.372;2023-05-14T07:56:09;100540.91;;;19.24;56.21
68525;BME280;55524;51.380;13.372;2023-05-14T07:58:36;100534.31;;;19.16;55.10
68525;BME280;55524;51.380;13.372;2023-05-14T08:01:02;100553.69;;;19.33;57.10
68525;BME280;55524;51.380;13.372;2023-05-14T08:03:32;100546.84;;;19.89;56.35
68525;BME280;55524;51.380;13.372;2023-05-14T08:05:59;100538.47;;;19.94;55.37
68525;BME280;55524;51.380;13.372;2023-05-14T08:08:25;100530.84;;;19.27;54.69
68525;BME280;55524;51.380;13.372;2023-05-14T08:10:52;100536.44;;;19.61;55.25
68525;BME280;55524;51.380;13.372;2023-05-14T08:13:21;100537.63;;;19.07;55.27
68525;BME280;55524;51.380;13.372;2023-05-14T08:15:47;100531.41;;;20.28;54.41
68525;BME280;55524;51.380;13.372;2023-05-14T08:18:13;100513.50;;;19.57;53.64
68525;BME280;55524;51.380;13.372;2023-05-14T08:20:40;100511.63;;;19.70;53.32
68525;BME280;55524;51.380;13.372;2023-05-14T08:23:06;100501.50;;;20.33;51.87
68525;BME280;55524;51.380;13.372;2023-05-14T08:25:33;100500.41;;;20.24;52.20
68525;BME280;55524;51.380;13.372;2023-05-14T08:27:59;100488.03;;;20.57;51.58
68525;BME280;55524;51.380;13.372;2023-05-14T08:30:26;100484.00;;;20.74;51.00
68525;BME280;55524;51.380;13.372;2023-05-14T08:32:53;100498.66;;;20.12;52.20
68525;BME280;55524;51.380;13.372;2023-05-14T08:35:19;100490.47;;;20.82;51.59
68525;BME280;55524;51.380;13.372;2023-05-14T08:37:46;100495.72;;;19.80;51.68
68525;BME280;55524;51.380;13.372;2023-05-14T08:40:12;100486.44;;;20.08;51.46
68525;BME280;55524;51.380;13.372;2023-05-14T08:42:39;100505.66;;;20.37;52.89
68525;BME280;55524;51.380;13.372;2023-05-14T08:45:15;100455.03;;;20.44;48.53
68525;BME280;55524;51.380;13.372;2023-05-14T08:47:44;100461.88;;;20.48;49.01
68525;BME280;55524;51.380;13.372;2023-05-14T08:50:12;100472.94;;;20.67;50.66
68525;BME280;55524;51.380;13.372;2023-05-14T08:52:39;100446.25;;;20.98;48.16
68525;BME280;55524;51.380;13.372;2023-05-14T08:55:06;100448.38;;;20.83;48.04
68525;BME280;55524;51.380;13.372;2023-05-14T08:57:33;100451.88;;;21.06;47.96
68525;BME280;55524;51.380;13.372;2023-05-14T09:00:01;100453.81;;;21.26;47.78
68525;BME280;55524;51.380;13.372;2023-05-14T09:02:33;100447.63;;;21.03;47.89
68525;BME280;55524;51.380;13.372;2023-05-14T09:05:01;100458.72;;;21.10;49.33
68525;BME280;55524;51.380;13.372;2023-05-14T09:07:29;100463.56;;;22.14;48.83
68525;BME280;55524;51.380;13.372;2023-05-14T09:09:55;100437.41;;;21.73;46.35
68525;BME280;55524;51.380;13.372;2023-05-14T09:12:22;100437.69;;;21.26;47.07
68525;BME280;55524;51.380;13.372;2023-05-14T09:14:49;100450.94;;;20.96;48.48
68525;BME280;55524;51.380;13.372;2023-05-14T09:17:16;100454.13;;;20.67;48.47
68525;BME280;55524;51.380;13.372;2023-05-14T09:19:43;100483.41;;;20.93;51.99
68525;BME280;55524;51.380;13.372;2023-05-14T09:22:14;100451.41;;;20.78;48.92
68525;BME280;55524;51.380;13.372;2023-05-14T09:24:41;100458.53;;;21.45;49.16
68525;BME280;55524;51.380;13.372;2023-05-14T09:27:08;100425.63;;;22.06;45.92
68525;BME280;55524;51.380;13.372;2023-05-14T09:29:35;100417.69;;;22.56;45.39
68525;BME280;55524;51.380;13.372;2023-05-14T09:32:02;100431.63;;;21.77;46.66
68525;BME280;55524;51.380;13.372;2023-05-14T09:34:34;100423.38;;;22.11;45.51
68525;BME280;55524;51.380;13.372;2023-05-14T09:37:05;100418.97;;;21.89;45.94
68525;BME280;55524;51.380;13.372;2023-05-14T09:39:33;100430.25;;;21.62;46.92
68525;BME280;55524;51.380;13.372;2023-05-14T09:42:01;100440.28;;;22.13;48.40
68525;BME280;55524;51.380;13.372;2023-05-14T09:44:28;100430.38;;;22.34;47.10
68525;BME280;55524;51.380;13.372;2023-05-14T09:46:56;100413.94;;;21.96;45.76
68525;BME280;55524;51.380;13.372;2023-05-14T09:49:22;100419.00;;;21.13;47.74
68525;BME280;55524;51.380;13.372;2023-05-14T09:51:49;100434.00;;;21.39;48.56
68525;BME280;55524;51.380;13.372;2023-05-14T09:54:15;100424.13;;;21.17;47.93
68525;BME280;55524;51.380;13.372;2023-05-14T09:56:43;100422.22;;;20.96;48.46
68525;BME280;55524;51.380;13.372;2023-05-14T09:59:09;100438.56;;;20.48;50.33
68525;BME280;55524;51.380;13.372;2023-05-14T10:01:37;100442.84;;;20.39;50.46
68525;BME280;55524;51.380;13.372;2023-05-14T10:04:06;100454.53;;;20.38;50.64
68525;BME280;55524;51.380;13.372;2023-05-14T10:06:37;100460.88;;;19.80;52.04
68525;BME280;55524;51.380;13.372;2023-05-14T10:09:11;100471.16;;;19.97;52.36
68525;BME280;55524;51.380;13.372;2023-05-14T10:11:43;100460.69;;;19.70;52.41
68525;BME280;55524;51.380;13.372;2023-05-14T10:14:19;100451.03;;;19.68;51.49
68525;BME280;55524;51.380;13.372;2023-05-14T10:16:53;100460.81;;;19.56;51.70
68525;BME280;55524;51.380;13.372;2023-05-14T10:19:24;100445.94;;;19.28;50.82
68525;BME280;55524;51.380;13.372;2023-05-14T10:22:11;100447.41;;;19.56;50.39
68525;BME280;55524;51.380;13.372;2023-05-14T10:24:40;100451.91;;;19.55;51.21
68525;BME280;55524;51.380;13.372;2023-05-14T10:27:07;100440.94;;;19.71;50.94
68525;BME280;55524;51.380;13.372;2023-05-14T10:29:36;100443.56;;;19.84;50.53
68525;BME280;55524;51.380;13.372;2023-05-14T10:32:09;100440.34;;;19.79;50.52
68525;BME280;55524;51.380;13.372;2023-05-14T10:34:43;100427.88;;;20.02;49.87
68525;BME280;55524;51.380;13.372;2023-05-14T10:37:14;100436.34;;;20.31;50.48
68525;BME280;55524;51.380;13.372;2023-05-14T10:39:49;100435.03;;;20.36;50.80
68525;BME280;55524;51.380;13.372;2023-05-14T10:42:25;100424.13;;;20.27;50.12
68525;BME280;55524;51.380;13.372;2023-05-14T10:44:56;100419.38;;;20.08;49.94
68525;BME280;55524;51.380;13.372;2023-05-14T10:47:25;100424.22;;;19.68;50.55
68525;BME280;55524;51.380;13.372;2023-05-14T10:49:54;100438.09;;;19.61;52.08
68525;BME280;55524;51.380;13.372;2023-05-14T10:52:21;100446.50;;;19.92;52.94
68525;BME280;55524;51.380;13.372;2023-05-14T10:57:21;100426.59;;;19.83;50.33
68525;BME280;55524;51.380;13.372;2023-05-14T10:59:50;100422.91;;;19.73;50.69
68525;BME280;55524;51.380;13.372;2023-05-14T11:04:56;100424.47;;;20.00;51.10
68525;BME280;55524;51.380;13.372;2023-05-14T11:07:39;100424.34;;;20.01;51.27
68525;BME280;55524;51.380;13.372;2023-05-14T11:12:35;100422.34;;;19.57;51.43
68525;BME280;55524;51.380;13.372;2023-05-14T11:15:10;100422.38;;;19.92;50.99
68525;BME280;55524;51.380;13.372;2023-05-14T11:17:38;100413.09;;;19.61;50.31
68525;BME280;55524;51.380;13.372;2023-05-14T11:20:06;100417.66;;;19.72;51.53
68525;BME280;55524;51.380;13.372;2023-05-14T11:22:34;100428.03;;;20.11;52.08
68525;BME280;55524;51.380;13.372;2023-05-14T11:25:00;100430.97;;;20.20;52.12
68525;BME280;55524;51.380;13.372;2023-05-14T11:27:28;100411.06;;;20.00;51.02
68525;BME280;55524;51.380;13.372;2023-05-14T11:29:54;100412.22;;;19.84;50.74
68525;BME280;55524;51.380;13.372;2023-05-14T11:32:21;100414.31;;;19.92;51.60
68525;BME280;55524;51.380;13.372;2023-05-14T11:34:47;100413.13;;;19.96;51.02
68525;BME280;55524;51.380;13.372;2023-05-14T11:37:14;100407.16;;;20.04;51.45
68525;BME280;55524;51.380;13.372;2023-05-14T11:39:49;100396.94;;;19.50;50.97
68525;BME280;55524;51.380;13.372;2023-05-14T11:42:17;100410.22;;;19.51;52.14
68525;BME280;55524;51.380;13.372;2023-05-14T11:44:49;100421.94;;;19.74;53.27
68525;BME280;55524;51.380;13.372;2023-05-14T11:47:17;100411.06;;;19.40;52.41
68525;BME280;55524;51.380;13.372;2023-05-14T11:49:44;100422.69;;;19.87;53.58
68525;BME280;55524;51.380;13.372;2023-05-14T11:52:12;100400.28;;;19.29;51.81
68525;BME280;55524;51.380;13.372;2023-05-14T11:54:44;100411.25;;;18.77;53.15
68525;BME280;55524;51.380;13.372;2023-05-14T11:57:13;100406.91;;;19.48;52.20
68525;BME280;55524;51.380;13.372;2023-05-14T11:59:41;100394.13;;;19.75;51.04
68525;BME280;55524;51.380;13.372;2023-05-14T12:02:13;100383.19;;;19.78;50.98
68525;BME280;55524;51.380;13.372;2023-05-14T12:04:41;100385.25;;;20.44;51.52
68525;BME280;55524;51.380;13.372;2023-05-14T12:07:09;100378.00;;;21.00;50.54
68525;BME280;55524;51.380;13.372;2023-05-14T12:09:38;100349.75;;;21.06;48.72
68525;BME280;55524;51.380;13.372;2023-05-14T12:12:10;100331.28;;;21.45;46.40
68525;BME280;55524;51.380;13.372;2023-05-14T12:14:38;100330.28;;;21.78;46.67
68525;BME280;55524;51.380;13.372;2023-05-14T12:17:16;100328.63;;;21.01;47.72
68525;BME280;55524;51.380;13.372;2023-05-14T12:19:45;100333.25;;;20.56;47.71
68525;BME280;55524;51.380;13.372;2023-05-14T12:22:21;100347.72;;;21.30;49.77
68525;BME280;55524;51.380;13.372;2023-05-14T12:24:57;100333.47;;;21.72;48.85
68525;BME280;55524;51.380;13.372;2023-05-14T12:27:25;100323.94;;;21.89;47.71
68525;BME280;55524;51.380;13.372;2023-05-14T12:29:59;100321.03;;;22.01;48.09
68525;BME280;55524;51.380;13.372;2023-05-14T12:32:33;100301.50;;;21.36;44.80
68525;BME280;55524;51.380;13.372;2023-05-14T12:35:00;100281.25;;;21.53;43.42
68525;BME280;55524;51.380;13.372;2023-05-14T12:37:27;100275.16;;;21.51;42.90
68525;BME280;55524;51.380;13.372;2023-05-14T12:39:55;100278.75;;;20.87;44.28
68525;BME280;55524;51.380;13.372;2023-05-14T12:42:21;100287.06;;;20.73;45.09
68525;BME280;55524;51.380;13.372;2023-05-14T12:44:47;100289.00;;;20.82;46.06
68525;BME280;55524;51.380;13.372;2023-05-14T12:47:15;100303.84;;;21.62;47.29
68525;BME280;55524;51.380;13.372;2023-05-14T12:49:42;100269.19;;;20.95;44.46
68525;BME280;55524;51.380;13.372;2023-05-14T12:52:08;100281.53;;;20.31;45.52
68525;BME280;55524;51.380;13.372;2023-05-14T12:54:34;100272.09;;;21.24;43.95
68525;BME280;55524;51.380;13.372;2023-05-14T12:57:02;100275.28;;;21.50;44.72